createdAt,value
2023-06-23T00:02:02.795Z,100.00
2023-06-23T00:04:31.714Z,100.00
2023-06-23T00:07:00.451Z,100.00
2023-06-23T00:09:29.128Z,100.00
2023-06-23T00:11:58.344Z,100.00
2023-06-23T00:14:26.193Z,100.00
2023-06-23T00:16:53.996Z,100.00
2023-06-23T00:19:21.938Z,100.00
2023-06-23T00:21:49.697Z,100.00
2023-06-23T00:24:18.095Z,100.00
2023-06-23T00:26:46.226Z,100.00
2023-06-23T00:29:15.264Z,100.00
2023-06-23T00:31:43.216Z,100.00
2023-06-23T00:34:11.280Z,100.00
2023-06-23T00:36:39.402Z,100.00
2023-06-23T00:39:07.365Z,100.00
2023-06-23T00:41:35.411Z,100.00
2023-06-23T00:44:03.175Z,100.00
2023-06-23T00:46:35.538Z,100.00
2023-06-23T00:49:03.946Z,100.00
2023-06-23T00:51:33.021Z,100.00
2023-06-23T00:54:01.882Z,100.00
2023-06-23T00:56:31.776Z,100.00
2023-06-23T00:59:00.081Z,100.00
2023-06-23T01:01:28.326Z,100.00
2023-06-23T01:04:00.361Z,100.00
2023-06-23T01:06:38.411Z,100.00
2023-06-23T01:09:15.195Z,100.00
2023-06-23T01:11:51.027Z,100.00
2023-06-23T01:14:25.905Z,100.00
2023-06-23T01:17:00.451Z,100.00
2023-06-23T01:19:54.963Z,100.00
2023-06-23T01:22:31.839Z,100.00
2023-06-23T01:25:13.410Z,100.00
2023-06-23T01:27:54.718Z,100.00
2023-06-23T01:30:27.629Z,100.00
2023-06-23T01:33:09.134Z,100.00
2023-06-23T01:35:44.146Z,100.00
2023-06-23T01:38:19.491Z,100.00
2023-06-23T01:40:52.686Z,100.00
2023-06-23T01:43:30.330Z,100.00
2023-06-23T01:46:04.688Z,100.00
2023-06-23T01:48:37.480Z,100.00
2023-06-23T01:51:07.345Z,100.00
2023-06-23T01:53:35.462Z,100.00
2023-06-23T01:56:07.560Z,100.00
2023-06-23T01:58:39.365Z,100.00
2023-06-23T02:01:09.220Z,100.00
2023-06-23T02:03:38.136Z,100.00
2023-06-23T02:06:07.797Z,100.00
2023-06-23T02:08:38.405Z,100.00
2023-06-23T02:11:08.090Z,100.00
2023-06-23T02:13:40.707Z,100.00
2023-06-23T02:16:10.834Z,100.00
2023-06-23T02:18:42.248Z,100.00
2023-06-23T02:21:12.493Z,100.00
2023-06-23T02:23:44.963Z,100.00
2023-06-23T02:26:13.183Z,100.00
2023-06-23T02:28:50.987Z,100.00
2023-06-23T02:31:22.392Z,100.00
2023-06-23T02:33:50.534Z,100.00
2023-06-23T02:36:22.413Z,100.00
2023-06-23T02:38:51.099Z,100.00
2023-06-23T02:41:21.510Z,100.00
2023-06-23T02:43:52.797Z,100.00
2023-06-23T02:46:25.492Z,100.00
2023-06-23T02:48:57.960Z,100.00
2023-06-23T02:51:28.869Z,100.00
2023-06-23T02:54:03.496Z,100.00
2023-06-23T02:56:32.759Z,100.00
2023-06-23T02:59:04.677Z,100.00
2023-06-23T03:01:41.304Z,100.00
2023-06-23T03:04:09.210Z,100.00
2023-06-23T03:06:38.006Z,100.00
2023-06-23T03:09:07.283Z,100.00
2023-06-23T03:11:36.169Z,100.00
2023-06-23T03:14:04.676Z,100.00
2023-06-23T03:16:41.082Z,100.00
2023-06-23T03:19:19.871Z,100.00
2023-06-23T03:21:52.903Z,100.00
2023-06-23T03:24:23.723Z,100.00
2023-06-23T03:26:58.679Z,100.00
2023-06-23T03:29:29.380Z,100.00
2023-06-23T03:32:03.479Z,100.00
2023-06-23T03:34:43.034Z,100.00
2023-06-23T03:37:15.092Z,100.00
2023-06-23T03:39:45.943Z,100.00
2023-06-23T03:42:14.016Z,100.00
2023-06-23T03:44:49.332Z,100.00
2023-06-23T03:47:23.122Z,100.00
2023-06-23T03:49:55.005Z,100.00
2023-06-23T03:52:25.445Z,100.00
2023-06-23T03:54:56.776Z,100.00
2023-06-23T03:57:30.397Z,100.00
2023-06-23T04:00:00.094Z,100.00
2023-06-23T04:02:31.471Z,100.00
2023-06-23T04:05:03.230Z,100.00
2023-06-23T04:07:33.231Z,100.00
2023-06-23T04:10:06.447Z,100.00
2023-06-23T04:12:36.308Z,100.00
2023-06-23T04:15:07.790Z,100.00
2023-06-23T04:17:42.365Z,100.00
2023-06-23T04:20:14.435Z,100.00
2023-06-23T04:22:45.627Z,100.00
2023-06-23T04:25:18.759Z,100.00
2023-06-23T04:27:49.632Z,100.00
2023-06-23T04:30:20.013Z,100.00
2023-06-23T04:32:49.275Z,100.00
2023-06-23T04:35:17.317Z,100.00
2023-06-23T04:37:49.472Z,100.00
2023-06-23T04:40:27.016Z,100.00
2023-06-23T04:43:01.490Z,100.00
2023-06-23T04:45:34.655Z,100.00
2023-06-23T04:48:07.098Z,100.00
2023-06-23T04:50:37.283Z,100.00
2023-06-23T04:53:09.305Z,100.00
2023-06-23T04:55:40.651Z,100.00
2023-06-23T04:58:11.392Z,100.00
2023-06-23T05:00:41.005Z,100.00
2023-06-23T05:03:11.835Z,100.00
2023-06-23T05:05:42.510Z,100.00
2023-06-23T05:08:13.139Z,100.00
2023-06-23T05:10:41.830Z,100.00
2023-06-23T05:13:13.472Z,100.00
2023-06-23T05:15:41.333Z,100.00
2023-06-23T05:18:11.709Z,100.00
2023-06-23T05:20:41.195Z,100.00
2023-06-23T05:23:11.091Z,100.00
2023-06-23T05:25:40.206Z,100.00
2023-06-23T05:28:09.847Z,100.00
2023-06-23T05:30:38.963Z,100.00
2023-06-23T05:33:09.449Z,100.00
2023-06-23T05:35:41.788Z,100.00
2023-06-23T05:38:10.928Z,100.00
2023-06-23T05:40:38.941Z,100.00
2023-06-23T05:43:08.172Z,100.00
2023-06-23T05:45:37.639Z,100.00
2023-06-23T05:48:15.402Z,100.00
2023-06-23T05:50:47.589Z,100.00
2023-06-23T05:53:25.011Z,100.00
2023-06-23T05:56:01.353Z,100.00
2023-06-23T05:58:33.399Z,100.00
2023-06-23T06:01:06.144Z,100.00
2023-06-23T06:03:39.149Z,100.00
2023-06-23T06:06:09.721Z,100.00
2023-06-23T06:08:40.350Z,100.00
2023-06-23T06:11:10.546Z,100.00
2023-06-23T06:13:43.164Z,100.00
2023-06-23T06:16:12.174Z,100.00
2023-06-23T06:18:42.133Z,100.00
2023-06-23T06:21:13.929Z,100.00
2023-06-23T06:23:43.585Z,100.00
2023-06-23T06:26:12.682Z,100.00
2023-06-23T06:28:44.550Z,100.00
2023-06-23T06:31:13.502Z,100.00
2023-06-23T06:33:43.419Z,100.00
2023-06-23T06:36:14.103Z,100.00
2023-06-23T06:38:43.247Z,100.00
2023-06-23T06:41:11.596Z,100.00
2023-06-23T06:43:39.883Z,100.00
2023-06-23T06:46:10.837Z,100.00
2023-06-23T06:48:41.260Z,100.00
2023-06-23T06:51:10.344Z,100.00
2023-06-23T06:53:39.556Z,100.00
2023-06-23T06:56:08.307Z,100.00
2023-06-23T06:58:37.191Z,100.00
2023-06-23T07:01:05.670Z,100.00
2023-06-23T07:03:34.679Z,100.00
2023-06-23T07:06:02.593Z,100.00
2023-06-23T07:08:30.621Z,100.00
2023-06-23T07:10:59.767Z,100.00
2023-06-23T07:13:27.619Z,100.00
2023-06-23T07:15:55.799Z,100.00
2023-06-23T07:18:24.860Z,100.00
2023-06-23T07:20:53.009Z,100.00
2023-06-23T07:23:21.072Z,100.00
2023-06-23T07:25:48.946Z,100.00
2023-06-23T07:28:18.295Z,100.00
2023-06-23T07:30:46.053Z,100.00
2023-06-23T07:33:13.962Z,100.00
2023-06-23T07:35:42.024Z,100.00
2023-06-23T07:38:09.897Z,100.00
2023-06-23T07:40:37.805Z,100.00
2023-06-23T07:43:05.874Z,100.00
2023-06-23T07:45:35.051Z,100.00
2023-06-23T07:48:02.854Z,100.00
2023-06-23T07:50:30.976Z,100.00
2023-06-23T07:52:58.970Z,100.00
2023-06-23T07:55:26.780Z,100.00
2023-06-23T07:57:54.753Z,100.00
2023-06-23T08:00:24.704Z,100.00
2023-06-23T08:02:53.993Z,100.00
2023-06-23T08:05:22.808Z,100.00
2023-06-23T08:07:50.905Z,100.00
2023-06-23T08:10:18.825Z,100.00
2023-06-23T08:12:46.718Z,100.00
2023-06-23T08:15:14.564Z,100.00
2023-06-23T08:17:42.510Z,100.00
2023-06-23T08:20:13.234Z,100.00
2023-06-23T08:22:41.702Z,100.00
2023-06-23T08:25:10.048Z,100.00
2023-06-23T08:27:38.141Z,100.00
2023-06-23T08:30:08.087Z,100.00
2023-06-23T08:32:35.920Z,100.00
2023-06-23T08:35:03.907Z,100.00
2023-06-23T08:37:38.204Z,100.00
2023-06-23T08:40:07.189Z,100.00
2023-06-23T08:42:35.463Z,100.00
2023-06-23T08:45:05.025Z,100.00
2023-06-23T08:47:34.810Z,100.00
2023-06-23T08:50:03.067Z,100.00
2023-06-23T08:52:31.124Z,100.00
2023-06-23T08:55:00.409Z,100.00
2023-06-23T08:57:28.229Z,100.00
2023-06-23T08:59:56.360Z,100.00
2023-06-23T09:02:24.781Z,100.00
2023-06-23T09:04:52.727Z,100.00
2023-06-23T09:07:20.829Z,100.00
2023-06-23T09:09:49.061Z,100.00
2023-06-23T09:12:21.686Z,100.00
2023-06-23T09:14:50.443Z,100.00
2023-06-23T09:17:19.155Z,100.00
2023-06-23T09:19:50.208Z,100.00
2023-06-23T09:22:20.618Z,100.00
2023-06-23T09:24:49.204Z,100.00
2023-06-23T09:27:18.551Z,100.00
2023-06-23T09:30:01.506Z,100.00
2023-06-23T09:32:34.741Z,100.00
2023-06-23T09:35:04.437Z,100.00
2023-06-23T09:37:37.315Z,100.00
2023-06-23T09:40:07.794Z,100.00
2023-06-23T09:42:39.522Z,100.00
2023-06-23T09:45:18.850Z,100.00
2023-06-23T09:47:49.973Z,100.00
2023-06-23T09:50:19.043Z,100.00
2023-06-23T09:52:46.829Z,100.00
2023-06-23T09:55:41.394Z,100.00
2023-06-23T09:58:11.909Z,100.00
2023-06-23T10:00:39.865Z,100.00
2023-06-23T10:03:07.804Z,100.00
2023-06-23T10:05:36.804Z,100.00
2023-06-23T10:08:09.844Z,100.00
2023-06-23T10:10:47.180Z,100.00
2023-06-23T10:13:17.026Z,100.00
2023-06-23T10:15:44.854Z,100.00
2023-06-23T10:18:13.429Z,100.00
2023-06-23T10:20:42.469Z,100.00
2023-06-23T10:23:10.591Z,100.00
2023-06-23T10:25:38.894Z,100.00
2023-06-23T10:28:11.172Z,100.00
2023-06-23T10:30:42.108Z,100.00
2023-06-23T10:33:29.235Z,100.00
2023-06-23T10:36:01.467Z,100.00
2023-06-23T10:38:32.936Z,100.00
2023-06-23T10:41:02.545Z,100.00
2023-06-23T10:43:35.317Z,100.00
2023-06-23T10:46:05.745Z,100.00
2023-06-23T10:48:34.651Z,100.00
2023-06-23T10:51:29.093Z,100.00
2023-06-23T10:54:11.929Z,100.00
2023-06-23T10:56:43.023Z,100.00
2023-06-23T10:59:22.433Z,100.00
2023-06-23T11:02:13.071Z,100.00
2023-06-23T11:04:56.697Z,100.00
2023-06-23T11:07:25.564Z,100.00
2023-06-23T11:10:07.711Z,100.00
2023-06-23T11:12:43.067Z,100.00
2023-06-23T11:15:17.243Z,100.00
2023-06-23T11:17:48.007Z,100.00
2023-06-23T11:20:30.800Z,100.00
2023-06-23T11:23:01.919Z,100.00
2023-06-23T11:25:31.803Z,100.00
2023-06-23T11:28:35.988Z,100.00
2023-06-23T11:31:14.546Z,100.00
2023-06-23T11:33:47.376Z,100.00
2023-06-23T11:36:19.079Z,100.00
2023-06-23T11:38:47.666Z,100.00
2023-06-23T11:41:17.319Z,100.00
2023-06-23T11:43:46.673Z,100.00
2023-06-23T11:46:16.207Z,100.00
2023-06-23T11:48:47.613Z,100.00
2023-06-23T11:51:16.478Z,100.00
2023-06-23T11:53:44.514Z,100.00
2023-06-23T11:56:16.995Z,100.00
2023-06-23T11:58:50.815Z,100.00
2023-06-23T12:01:19.601Z,100.00
2023-06-23T12:03:49.964Z,100.00
2023-06-23T12:06:18.797Z,100.00
2023-06-23T12:08:50.868Z,100.00
2023-06-23T12:11:20.056Z,100.00
2023-06-23T12:13:48.861Z,100.00
2023-06-23T12:16:16.825Z,100.00
2023-06-23T12:18:45.620Z,100.00
2023-06-23T12:21:16.605Z,100.00
2023-06-23T12:23:45.636Z,100.00
2023-06-23T12:26:13.584Z,100.00
2023-06-23T12:28:41.649Z,100.00
2023-06-23T12:31:09.984Z,100.00
2023-06-23T12:33:41.064Z,100.00
2023-06-23T12:36:18.062Z,100.00
2023-06-23T12:38:54.935Z,100.00
2023-06-23T12:41:28.901Z,100.00
2023-06-23T12:44:01.520Z,100.00
2023-06-23T12:46:32.140Z,100.00
2023-06-23T12:49:00.245Z,100.00
2023-06-23T12:51:35.887Z,100.00
2023-06-23T12:54:04.556Z,100.00
2023-06-23T12:56:32.868Z,100.00
2023-06-23T12:59:00.746Z,100.00
2023-06-23T13:01:30.848Z,100.00
2023-06-23T13:03:58.942Z,100.00
2023-06-23T13:06:27.090Z,100.00
2023-06-23T13:08:58.550Z,100.00
2023-06-23T13:11:28.358Z,100.00
2023-06-23T13:13:56.667Z,100.00
2023-06-23T13:16:24.652Z,100.00
2023-06-23T13:18:52.564Z,100.00
2023-06-23T13:21:20.302Z,100.00
2023-06-23T13:23:48.384Z,100.00
2023-06-23T13:26:17.848Z,100.00
2023-06-23T13:28:45.732Z,100.00
2023-06-23T13:31:14.276Z,100.00
2023-06-23T13:33:42.536Z,100.00
2023-06-23T13:36:10.937Z,100.00
2023-06-23T13:38:38.825Z,100.00
2023-06-23T13:41:06.673Z,100.00
2023-06-23T13:43:38.021Z,100.00
2023-06-23T13:46:07.639Z,100.00
2023-06-23T13:48:35.501Z,100.00
2023-06-23T13:51:03.585Z,100.00
2023-06-23T13:53:31.457Z,100.00
2023-06-23T13:55:59.478Z,100.00
2023-06-23T13:58:27.548Z,100.00
2023-06-23T14:00:57.030Z,100.00
2023-06-23T14:03:24.932Z,100.00
2023-06-23T14:05:55.790Z,100.00
2023-06-23T14:08:23.957Z,100.00
2023-06-23T14:10:52.048Z,100.00
2023-06-23T14:13:19.980Z,100.00
2023-06-23T14:15:48.059Z,100.00
2023-06-23T14:18:17.461Z,100.00
2023-06-23T14:20:46.296Z,100.00
2023-06-23T14:23:14.274Z,100.00
2023-06-23T14:25:42.030Z,100.00
2023-06-23T14:28:10.033Z,100.00
2023-06-23T14:30:38.659Z,100.00
2023-06-23T14:33:07.642Z,100.00
2023-06-23T14:35:37.049Z,100.00
2023-06-23T14:38:06.698Z,100.00
2023-06-23T14:40:34.773Z,100.00
2023-06-23T14:43:03.293Z,100.00
2023-06-23T14:45:36.424Z,100.00
2023-06-23T14:48:04.882Z,100.00
2023-06-23T14:50:32.870Z,100.00
2023-06-23T14:53:02.453Z,100.00
2023-06-23T14:55:34.124Z,100.00
2023-06-23T14:58:04.380Z,100.00
2023-06-23T15:00:32.653Z,100.00
2023-06-23T15:03:00.813Z,100.00
2023-06-23T15:05:30.073Z,100.00
2023-06-23T15:07:58.207Z,100.00
2023-06-23T15:10:27.873Z,100.00
2023-06-23T15:12:55.588Z,100.00
2023-06-23T15:15:23.383Z,100.00
2023-06-23T15:17:51.287Z,100.00
2023-06-23T15:20:19.419Z,100.00
2023-06-23T15:22:47.804Z,100.00
2023-06-23T15:25:15.698Z,100.00
2023-06-23T15:27:45.612Z,100.00
2023-06-23T15:30:13.908Z,100.00
2023-06-23T15:32:42.002Z,100.00
2023-06-23T15:35:10.901Z,100.00
2023-06-23T15:37:40.603Z,100.00
2023-06-23T15:40:12.619Z,100.00
2023-06-23T15:42:44.683Z,100.00
2023-06-23T15:45:13.284Z,100.00
2023-06-23T15:47:41.202Z,100.00
2023-06-23T15:50:09.641Z,100.00
2023-06-23T15:52:37.589Z,100.00
2023-06-23T15:55:07.655Z,100.00
2023-06-23T15:57:35.407Z,100.00
2023-06-23T16:00:06.362Z,100.00
2023-06-23T16:02:34.241Z,100.00
2023-06-23T16:05:02.770Z,100.00
2023-06-23T16:07:30.807Z,100.00
2023-06-23T16:10:02.705Z,100.00
2023-06-23T16:12:30.461Z,100.00
2023-06-23T16:15:00.696Z,100.00
2023-06-23T16:17:30.194Z,100.00
2023-06-23T16:19:58.072Z,100.00
2023-06-23T16:22:25.923Z,100.00
2023-06-23T16:24:53.698Z,100.00
2023-06-23T16:27:21.592Z,100.00
2023-06-23T16:29:49.474Z,100.00
2023-06-23T16:32:17.566Z,100.00
2023-06-23T16:34:47.125Z,100.00
2023-06-23T16:37:15.050Z,100.00
2023-06-23T16:39:43.647Z,100.00
2023-06-23T16:42:11.671Z,100.00
2023-06-23T16:44:41.900Z,100.00
2023-06-23T16:47:10.533Z,100.00
2023-06-23T16:49:38.491Z,100.00
2023-06-23T16:52:09.541Z,100.00
2023-06-23T16:54:38.969Z,100.00
2023-06-23T16:57:09.899Z,100.00
2023-06-23T16:59:38.554Z,100.00
2023-06-23T17:02:07.682Z,100.00
2023-06-23T17:04:37.965Z,100.00
2023-06-23T17:07:07.888Z,100.00
2023-06-23T17:09:35.981Z,100.00
2023-06-23T17:12:17.867Z,100.00
2023-06-23T17:14:47.623Z,100.00
2023-06-23T17:17:15.738Z,100.00
2023-06-23T17:19:43.843Z,100.00
2023-06-23T17:22:14.771Z,100.00
2023-06-23T17:24:43.925Z,100.00
2023-06-23T17:27:11.662Z,100.00
2023-06-23T17:29:39.416Z,100.00
2023-06-23T17:32:09.396Z,100.00
2023-06-23T17:34:37.221Z,100.00
2023-06-23T17:37:05.746Z,100.00
2023-06-23T17:39:35.074Z,100.00
2023-06-23T17:42:02.906Z,100.00
2023-06-23T17:44:31.075Z,100.00
2023-06-23T17:47:01.013Z,100.00
2023-06-23T17:49:29.960Z,100.00
2023-06-23T17:51:57.971Z,100.00
2023-06-23T17:54:25.814Z,100.00
2023-06-23T17:56:55.321Z,100.00
2023-06-23T17:59:23.595Z,100.00
2023-06-23T18:01:51.704Z,100.00
2023-06-23T18:04:19.676Z,100.00
2023-06-23T18:06:47.533Z,100.00
2023-06-23T18:09:15.539Z,100.00
2023-06-23T18:11:45.083Z,100.00
2023-06-23T18:14:14.727Z,100.00
2023-06-23T18:16:43.064Z,100.00
2023-06-23T18:19:10.959Z,100.00
2023-06-23T18:21:38.935Z,100.00
2023-06-23T18:24:08.316Z,100.00
2023-06-23T18:26:36.250Z,100.00
2023-06-23T18:29:04.097Z,100.00
2023-06-23T18:31:33.361Z,100.00
2023-06-23T18:34:01.601Z,100.00
2023-06-23T18:36:29.570Z,100.00
2023-06-23T18:38:57.670Z,100.00
2023-06-23T18:41:25.744Z,100.00
2023-06-23T18:43:54.922Z,100.00
2023-06-23T18:46:24.032Z,100.00
2023-06-23T18:48:53.946Z,100.00
2023-06-23T18:51:22.101Z,100.00
2023-06-23T18:53:50.240Z,100.00
2023-06-23T18:56:18.239Z,100.00
2023-06-23T18:58:49.622Z,100.00
2023-06-23T19:01:17.626Z,100.00
2023-06-23T19:03:46.240Z,98.27
2023-06-23T19:06:17.144Z,98.75
2023-06-23T19:08:44.930Z,97.84
2023-06-23T19:11:12.678Z,97.50
2023-06-23T19:13:40.661Z,97.48
2023-06-23T19:16:08.398Z,97.44
2023-06-23T19:18:36.334Z,97.58
2023-06-23T19:21:04.678Z,94.88
2023-06-23T19:23:33.846Z,89.22
2023-06-23T19:26:01.643Z,87.51
2023-06-23T19:28:29.709Z,85.95
2023-06-23T19:30:58.683Z,84.55
2023-06-23T19:33:26.519Z,83.71
2023-06-23T19:35:54.536Z,81.18
2023-06-23T19:38:22.338Z,81.27
2023-06-23T19:40:51.941Z,76.96
2023-06-23T19:43:22.200Z,75.31
2023-06-23T19:45:51.172Z,76.62
2023-06-23T19:48:21.377Z,74.55
2023-06-23T19:50:49.737Z,77.67
2023-06-23T19:53:17.570Z,77.52
2023-06-23T19:55:46.407Z,75.18
2023-06-23T19:58:19.792Z,71.55
2023-06-23T20:00:48.204Z,73.88
2023-06-23T20:03:16.131Z,72.83
2023-06-23T20:05:44.505Z,74.69
2023-06-23T20:08:12.538Z,75.91
2023-06-23T20:10:40.602Z,76.33
2023-06-23T20:13:09.694Z,73.08
2023-06-23T20:15:38.958Z,77.32
2023-06-23T20:18:07.129Z,76.65
2023-06-23T20:20:35.600Z,78.13
2023-06-23T20:23:05.713Z,74.37
2023-06-23T20:25:33.675Z,75.69
2023-06-23T20:28:01.561Z,78.81
2023-06-23T20:30:30.161Z,78.39
2023-06-23T20:32:59.379Z,75.15
2023-06-23T20:35:27.529Z,78.61
2023-06-23T20:37:55.675Z,76.61
2023-06-23T20:40:23.616Z,77.66
2023-06-23T20:42:52.859Z,78.01
2023-06-23T20:45:21.415Z,77.62
2023-06-23T20:47:51.430Z,80.83
2023-06-23T20:50:21.110Z,78.39
2023-06-23T20:52:49.230Z,80.61
2023-06-23T20:55:18.839Z,80.69
2023-06-23T20:57:46.718Z,81.19
2023-06-23T21:00:15.482Z,83.86
2023-06-23T21:02:43.369Z,84.30
2023-06-23T21:05:11.239Z,82.96
2023-06-23T21:07:40.704Z,84.95
2023-06-23T21:10:23.669Z,85.13
2023-06-23T21:12:56.382Z,86.45
2023-06-23T21:15:25.893Z,86.23
2023-06-23T21:17:54.577Z,88.15
2023-06-23T21:20:26.479Z,89.82
2023-06-23T21:22:56.702Z,91.85
2023-06-23T21:25:24.487Z,93.99
2023-06-23T21:27:52.308Z,96.05
2023-06-23T21:30:20.113Z,97.85
2023-06-23T21:32:48.200Z,99.66
2023-06-23T21:35:16.121Z,100.00
2023-06-23T21:37:46.115Z,100.00
2023-06-23T21:40:18.728Z,100.00
2023-06-23T21:42:47.139Z,100.00
2023-06-23T21:45:15.163Z,100.00
2023-06-23T21:47:42.952Z,100.00
2023-06-23T21:50:13.696Z,100.00
2023-06-23T21:52:42.017Z,100.00
2023-06-23T21:55:11.429Z,100.00
2023-06-23T21:57:41.852Z,100.00
2023-06-23T22:00:11.213Z,100.00
2023-06-23T22:02:39.304Z,100.00
2023-06-23T22:05:07.120Z,100.00
2023-06-23T22:07:35.054Z,100.00
2023-06-23T22:10:03.117Z,100.00
2023-06-23T22:12:32.732Z,100.00
2023-06-23T22:15:01.968Z,100.00
2023-06-23T22:17:31.013Z,100.00
2023-06-23T22:19:59.737Z,100.00
2023-06-23T22:22:29.765Z,100.00
2023-06-23T22:24:57.898Z,100.00
2023-06-23T22:27:29.774Z,100.00
2023-06-23T22:29:58.262Z,100.00
2023-06-23T22:32:27.867Z,100.00
2023-06-23T22:34:57.217Z,100.00
2023-06-23T22:37:24.980Z,100.00
2023-06-23T22:39:52.732Z,100.00
2023-06-23T22:42:20.748Z,100.00
2023-06-23T22:44:49.350Z,100.00
2023-06-23T22:47:20.574Z,100.00
2023-06-23T22:49:50.029Z,100.00
2023-06-23T22:52:17.951Z,100.00
2023-06-23T22:54:45.994Z,100.00
2023-06-23T22:57:14.205Z,100.00
2023-06-23T22:59:42.093Z,100.00
2023-06-23T23:02:10.087Z,100.00
2023-06-23T23:04:37.890Z,100.00
2023-06-23T23:07:09.089Z,100.00
2023-06-23T23:09:37.968Z,100.00
2023-06-23T23:12:06.618Z,100.00
2023-06-23T23:14:34.896Z,100.00
2023-06-23T23:17:03.938Z,100.00
2023-06-23T23:19:32.244Z,100.00
2023-06-23T23:22:00.536Z,100.00
2023-06-23T23:24:29.687Z,100.00
2023-06-23T23:27:00.541Z,100.00
2023-06-23T23:29:28.809Z,100.00
2023-06-23T23:31:58.470Z,100.00
2023-06-23T23:34:32.997Z,100.00
2023-06-23T23:37:01.344Z,100.00
2023-06-23T23:39:30.847Z,100.00
2023-06-23T23:41:59.141Z,100.00
2023-06-23T23:44:27.506Z,100.00
2023-06-23T23:46:55.703Z,100.00
2023-06-23T23:49:27.586Z,100.00
2023-06-23T23:51:57.537Z,100.00
2023-06-23T23:54:25.436Z,100.00
2023-06-23T23:56:55.106Z,100.00
2023-06-23T23:59:23.232Z,100.00
